PWSweather.com
Personal Weather Stations
Station Observations
BREAKEY01
Lévis, Breakeyville, QC G6z 7G7

LévisBreakeyville, QC G6z 7G7

Lat: 46.681, Lon: -71.224

Elevation: 328

Station Type: Davis Vantage Pro2

http://www.meteobreakey.com

Latest ConditionsUpdated 11:42:03 AM EDT Sunday, Apr 23, 2017
Currently Today's Max Today's Min Today's Average
Temperature 47.1°F8.4°C 47.1°F8.4°C 34.3°F1.3°C 38.5°F3.6°C
Dew Point 39.9°F4.4°C 39.9°F4.4°C 33.4°F0.8°C 36.8°F2.7°C
Winds 6.9 mph SW11.1 kmh SW 8.9 mph WSW14.3 kmh WSW - 2.0 mph 3.2 kmh
Wind Gusts 6.0 mph9.7 kmh 11.0 mph17.7 kmh - -
Humidity 76% 97% 75% 94%
Pressure 30.01 in1016.3 mb 30.05 in1017.6 mb 29.98 in1015.2 mb -
Precipitation - 0.01 in0.3 mm - -
Hour Temp Dew Point Humidity Winds Wind Gusts Pressure Precip Precip Rate Daily Precip Total
11:42 AM 47.1°F8.4°C 39.9°F4.4°C 76% 6.9 mph SW11.1 kmh SW 6.0 mph9.7 kmh 30.01 in1016.3 mb - 0.00 in0.0 mm 0.01 in0.3 mm
11:37 AM 46.8°F8.2°C 39.6°F4.2°C 76% 6.9 mph SW11.1 kmh SW 10.1 mph16.3 kmh 30.01 in1016.3 mb - 0.00 in0.0 mm 0.01 in0.3 mm
11:32 AM 46.2°F7.9°C 39.4°F4.1°C 77% 6.9 mph SW11.1 kmh SW 6.9 mph11.1 kmh 30.01 in1016.3 mb - 0.00 in0.0 mm 0.01 in0.3 mm
11:27 AM 46.0°F7.8°C 39.6°F4.2°C 78% 6.9 mph WSW11.1 kmh WSW 11.0 mph17.7 kmh 30.02 in1016.6 mb - 0.00 in0.0 mm 0.01 in0.3 mm
11:22 AM 45.9°F7.7°C 39.4°F4.1°C 78% 6.0 mph SW9.7 kmh SW 8.1 mph13.0 kmh 30.02 in1016.6 mb - 0.00 in0.0 mm 0.01 in0.3 mm
11:17 AM 45.5°F7.5°C 39.7°F4.3°C 80% 6.0 mph WSW9.7 kmh WSW 4.0 mph6.4 kmh 30.03 in1016.9 mb - 0.00 in0.0 mm 0.01 in0.3 mm
11:12 AM 45.5°F7.5°C 39.7°F4.3°C 80% 6.0 mph SW9.7 kmh SW 8.9 mph14.3 kmh 30.03 in1016.9 mb - 0.00 in0.0 mm 0.01 in0.3 mm
11:07 AM 45.7°F7.6°C 39.9°F4.4°C 80% 6.0 mph SW9.7 kmh SW 8.1 mph13.0 kmh 30.03 in1016.9 mb - 0.00 in0.0 mm 0.01 in0.3 mm
11:02 AM 45.3°F7.4°C 38.8°F3.8°C 78% 6.9 mph SW11.1 kmh SW 6.0 mph9.7 kmh 30.03 in1016.9 mb - 0.00 in0.0 mm 0.01 in0.3 mm
10:57 AM 45.0°F7.2°C 39.2°F4.0°C 80% 6.9 mph SW11.1 kmh SW 4.9 mph7.9 kmh 30.03 in1016.9 mb - 0.00 in0.0 mm 0.01 in0.3 mm
10:52 AM 44.8°F7.1°C 37.4°F3.0°C 75% 6.9 mph WNW11.1 kmh WNW 6.9 mph11.1 kmh 30.03 in1016.9 mb - 0.00 in0.0 mm 0.01 in0.3 mm
10:47 AM 44.8°F7.1°C 37.9°F3.3°C 77% 8.1 mph WNW13.0 kmh WNW 6.9 mph11.1 kmh 30.03 in1016.9 mb - 0.00 in0.0 mm 0.01 in0.3 mm
10:42 AM 44.8°F7.1°C 37.8°F3.2°C 76% 8.9 mph WSW14.3 kmh WSW 6.9 mph11.1 kmh 30.03 in1016.9 mb - 0.00 in0.0 mm 0.01 in0.3 mm
10:37 AM 44.8°F7.1°C 37.9°F3.3°C 77% 6.9 mph WSW11.1 kmh WSW 4.9 mph7.9 kmh 30.03 in1016.9 mb - 0.00 in0.0 mm 0.01 in0.3 mm
10:32 AM 44.8°F7.1°C 39.4°F4.1°C 81% 4.9 mph WSW7.9 kmh WSW 8.9 mph14.3 kmh 30.04 in1017.3 mb - 0.00 in0.0 mm 0.01 in0.3 mm
10:27 AM 44.4°F6.9°C 39.2°F4.0°C 82% 4.9 mph SW7.9 kmh SW 6.9 mph11.1 kmh 30.04 in1017.3 mb - 0.00 in0.0 mm 0.01 in0.3 mm
10:22 AM 44.2°F6.8°C 39.0°F3.9°C 82% 4.0 mph WSW6.4 kmh WSW 4.0 mph6.4 kmh 30.04 in1017.3 mb - 0.00 in0.0 mm 0.01 in0.3 mm
10:17 AM 44.4°F6.9°C 39.6°F4.2°C 83% 4.9 mph SSW7.9 kmh SSW 6.0 mph9.7 kmh 30.04 in1017.3 mb - 0.00 in0.0 mm 0.01 in0.3 mm
10:12 AM 43.9°F6.6°C 38.7°F3.7°C 82% 6.0 mph WNW9.7 kmh WNW 0.9 mph1.4 kmh 30.04 in1017.3 mb - 0.00 in0.0 mm 0.01 in0.3 mm
10:07 AM 43.9°F6.6°C 38.7°F3.7°C 82% 6.9 mph W11.1 kmh W 4.0 mph6.4 kmh 30.04 in1017.3 mb - 0.00 in0.0 mm 0.01 in0.3 mm
10:02 AM 43.5°F6.4°C 38.7°F3.7°C 83% 6.0 mph SW9.7 kmh SW 4.9 mph7.9 kmh 30.04 in1017.3 mb - 0.00 in0.0 mm 0.01 in0.3 mm
09:57 AM 43.2°F6.2°C 38.7°F3.7°C 84% 6.9 mph WSW11.1 kmh WSW 4.0 mph6.4 kmh 30.04 in1017.3 mb - 0.00 in0.0 mm 0.01 in0.3 mm
09:52 AM 42.8°F6.0°C 38.3°F3.5°C 84% 6.9 mph W11.1 kmh W 6.0 mph9.7 kmh 30.04 in1017.3 mb - 0.00 in0.0 mm 0.01 in0.3 mm
09:47 AM 42.4°F5.8°C 38.5°F3.6°C 86% 4.9 mph WSW7.9 kmh WSW 11.0 mph17.7 kmh 30.04 in1017.3 mb - 0.00 in0.0 mm 0.01 in0.3 mm
09:42 AM 41.9°F5.5°C 38.3°F3.5°C 87% 4.0 mph W6.4 kmh W 2.9 mph4.7 kmh 30.04 in1017.3 mb - 0.00 in0.0 mm 0.01 in0.3 mm
09:37 AM 41.7°F5.4°C 38.5°F3.6°C 88% 4.9 mph WSW7.9 kmh WSW 2.9 mph4.7 kmh 30.04 in1017.3 mb - 0.00 in0.0 mm 0.01 in0.3 mm
09:32 AM 41.7°F5.4°C 38.5°F3.6°C 88% 4.9 mph SW7.9 kmh SW 6.0 mph9.7 kmh 30.04 in1017.3 mb - 0.00 in0.0 mm 0.01 in0.3 mm
09:27 AM 41.5°F5.3°C 39.2°F4.0°C 91% 4.9 mph WSW7.9 kmh WSW 6.9 mph11.1 kmh 30.04 in1017.3 mb - 0.00 in0.0 mm 0.01 in0.3 mm
09:22 AM 41.0°F5.0°C 38.8°F3.8°C 92% 4.0 mph WSW6.4 kmh WSW 4.9 mph7.9 kmh 30.04 in1017.3 mb - 0.00 in0.0 mm 0.01 in0.3 mm
09:17 AM 40.6°F4.8°C 38.5°F3.6°C 92% 4.0 mph W6.4 kmh W 4.0 mph6.4 kmh 30.05 in1017.6 mb - 0.00 in0.0 mm 0.01 in0.3 mm
09:12 AM 40.8°F4.9°C 39.0°F3.9°C 93% 2.9 mph W4.7 kmh W 10.1 mph16.3 kmh 30.05 in1017.6 mb - 0.00 in0.0 mm 0.01 in0.3 mm
09:07 AM 40.6°F4.8°C 39.0°F3.9°C 94% 2.9 mph WNW4.7 kmh WNW 2.0 mph3.2 kmh 30.04 in1017.3 mb - 0.00 in0.0 mm 0.00 in0.0 mm
09:02 AM 40.1°F4.5°C 38.5°F3.6°C 94% 4.0 mph WSW6.4 kmh WSW 4.9 mph7.9 kmh 30.05 in1017.6 mb - 0.00 in0.0 mm 0.00 in0.0 mm
08:57 AM 39.9°F4.4°C 38.7°F3.7°C 95% 2.9 mph WSW4.7 kmh WSW 6.0 mph9.7 kmh 30.05 in1017.6 mb - 0.00 in0.0 mm 0.00 in0.0 mm
08:52 AM 39.7°F4.3°C 38.7°F3.7°C 96% 2.9 mph WSW4.7 kmh WSW 2.9 mph4.7 kmh 30.04 in1017.3 mb - 0.00 in0.0 mm 0.00 in0.0 mm
08:47 AM 39.4°F4.1°C 38.3°F3.5°C 96% 2.9 mph WSW4.7 kmh WSW 0.9 mph1.4 kmh 30.04 in1017.3 mb - 0.00 in0.0 mm 0.00 in0.0 mm
08:42 AM 38.7°F3.7°C 37.6°F3.1°C 96% 4.9 mph W7.9 kmh W 0.9 mph1.4 kmh 30.04 in1017.3 mb - 0.00 in0.0 mm 0.00 in0.0 mm
08:37 AM 38.3°F3.5°C 37.2°F2.9°C 96% 4.9 mph WSW7.9 kmh WSW 4.0 mph6.4 kmh 30.04 in1017.3 mb - 0.00 in0.0 mm 0.00 in0.0 mm
08:32 AM 37.9°F3.3°C 36.9°F2.7°C 96% 4.0 mph WSW6.4 kmh WSW 4.0 mph6.4 kmh 30.04 in1017.3 mb - 0.00 in0.0 mm 0.00 in0.0 mm
08:27 AM 37.4°F3.0°C 36.3°F2.4°C 96% 2.9 mph WSW4.7 kmh WSW 0.9 mph1.4 kmh 30.03 in1016.9 mb - 0.00 in0.0 mm 0.00 in0.0 mm
08:22 AM 37.2°F2.9°C 36.5°F2.5°C 97% 2.0 mph W3.2 kmh W 2.9 mph4.7 kmh 30.03 in1016.9 mb - 0.00 in0.0 mm 0.00 in0.0 mm
08:17 AM 37.2°F2.9°C 36.5°F2.5°C 97% 0.9 mph W1.4 kmh W 0.9 mph1.4 kmh 30.03 in1016.9 mb - 0.00 in0.0 mm 0.00 in0.0 mm
08:12 AM 37.0°F2.8°C 36.3°F2.4°C 97% 0.9 mph W1.4 kmh W 2.0 mph3.2 kmh 30.03 in1016.9 mb - 0.00 in0.0 mm 0.00 in0.0 mm
08:07 AM 36.7°F2.6°C 36.0°F2.2°C 97% 2.9 mph W4.7 kmh W 2.9 mph4.7 kmh 30.03 in1016.9 mb - 0.00 in0.0 mm 0.00 in0.0 mm
08:02 AM 36.1°F2.3°C 35.4°F1.9°C 97% 4.0 mph WSW6.4 kmh WSW -- 30.04 in1017.3 mb - 0.00 in0.0 mm 0.00 in0.0 mm
07:57 AM 36.1°F2.3°C 35.4°F1.9°C 97% 4.0 mph WSW6.4 kmh WSW 4.0 mph6.4 kmh 30.04 in1017.3 mb - 0.00 in0.0 mm 0.00 in0.0 mm
07:52 AM 36.0°F2.2°C 35.2°F1.8°C 97% 4.0 mph WSW6.4 kmh WSW 2.0 mph3.2 kmh 30.04 in1017.3 mb - 0.00 in0.0 mm 0.00 in0.0 mm
07:47 AM 36.1°F2.3°C 35.4°F1.9°C 97% 2.9 mph W4.7 kmh W 4.0 mph6.4 kmh 30.04 in1017.3 mb - 0.00 in0.0 mm 0.00 in0.0 mm
07:42 AM 36.3°F2.4°C 35.6°F2.0°C 97% 2.0 mph WSW3.2 kmh WSW 4.0 mph6.4 kmh 30.04 in1017.3 mb - 0.00 in0.0 mm 0.00 in0.0 mm
07:37 AM 36.1°F2.3°C 35.4°F1.9°C 97% 2.0 mph WSW3.2 kmh WSW 2.0 mph3.2 kmh 30.04 in1017.3 mb - 0.00 in0.0 mm 0.00 in0.0 mm
07:32 AM 36.0°F2.2°C 35.2°F1.8°C 97% 2.9 mph WSW4.7 kmh WSW 0.9 mph1.4 kmh 30.04 in1017.3 mb - 0.00 in0.0 mm 0.00 in0.0 mm
07:27 AM 35.8°F2.1°C 35.1°F1.7°C 97% 2.0 mph WSW3.2 kmh WSW 2.0 mph3.2 kmh 30.04 in1017.3 mb - 0.00 in0.0 mm 0.00 in0.0 mm
07:22 AM 35.6°F2.0°C 34.9°F1.6°C 97% 2.0 mph WSW3.2 kmh WSW 0.9 mph1.4 kmh 30.04 in1017.3 mb - 0.00 in0.0 mm 0.00 in0.0 mm
07:17 AM 35.2°F1.8°C 34.5°F1.4°C 97% 2.9 mph WSW4.7 kmh WSW 2.9 mph4.7 kmh 30.04 in1017.3 mb - 0.00 in0.0 mm 0.00 in0.0 mm
07:12 AM 35.1°F1.7°C 34.3°F1.3°C 97% 2.9 mph WSW4.7 kmh WSW 2.9 mph4.7 kmh 30.04 in1017.3 mb - 0.00 in0.0 mm 0.00 in0.0 mm
07:07 AM 35.1°F1.7°C 34.3°F1.3°C 97% 2.9 mph WSW4.7 kmh WSW 4.9 mph7.9 kmh 30.04 in1017.3 mb - 0.00 in0.0 mm 0.00 in0.0 mm
07:02 AM 34.9°F1.6°C 34.2°F1.2°C 97% 2.9 mph SW4.7 kmh SW 2.0 mph3.2 kmh 30.04 in1017.3 mb - 0.00 in0.0 mm 0.00 in0.0 mm
06:57 AM 34.7°F1.5°C 34.0°F1.1°C 97% 2.9 mph SW4.7 kmh SW 4.0 mph6.4 kmh 30.04 in1017.3 mb - 0.00 in0.0 mm 0.00 in0.0 mm
06:52 AM 34.5°F1.4°C 33.8°F1.0°C 97% 2.9 mph WSW4.7 kmh WSW 2.0 mph3.2 kmh 30.03 in1016.9 mb - 0.00 in0.0 mm 0.00 in0.0 mm
06:47 AM 34.3°F1.3°C 33.6°F0.9°C 97% 2.0 mph SW3.2 kmh SW 4.9 mph7.9 kmh 30.03 in1016.9 mb - 0.00 in0.0 mm 0.00 in0.0 mm
06:42 AM 34.3°F1.3°C 33.6°F0.9°C 97% 2.0 mph SW3.2 kmh SW 0.9 mph1.4 kmh 30.04 in1017.3 mb - 0.00 in0.0 mm 0.00 in0.0 mm
06:37 AM 34.3°F1.3°C 33.6°F0.9°C 97% 2.0 mph SW3.2 kmh SW 2.0 mph3.2 kmh 30.03 in1016.9 mb - 0.00 in0.0 mm 0.00 in0.0 mm
06:32 AM 34.3°F1.3°C 33.6°F0.9°C 97% 2.0 mph SW3.2 kmh SW 2.0 mph3.2 kmh 30.03 in1016.9 mb - 0.00 in0.0 mm 0.00 in0.0 mm
06:27 AM 34.3°F1.3°C 33.6°F0.9°C 97% 2.0 mph SW3.2 kmh SW 2.9 mph4.7 kmh 30.02 in1016.6 mb - 0.00 in0.0 mm 0.00 in0.0 mm
06:22 AM 34.5°F1.4°C 33.8°F1.0°C 97% 2.0 mph SW3.2 kmh SW 2.0 mph3.2 kmh 30.02 in1016.6 mb - 0.00 in0.0 mm 0.00 in0.0 mm
06:17 AM 34.5°F1.4°C 33.8°F1.0°C 97% 0.9 mph SW1.4 kmh SW 2.0 mph3.2 kmh 30.02 in1016.6 mb - 0.00 in0.0 mm 0.00 in0.0 mm
06:12 AM 34.5°F1.4°C 33.4°F0.8°C 96% 0.9 mph SW1.4 kmh SW -- 30.02 in1016.6 mb - 0.00 in0.0 mm 0.00 in0.0 mm
06:07 AM 34.7°F1.5°C 33.6°F0.9°C 96% 0.9 mph WSW1.4 kmh WSW -- 30.02 in1016.6 mb - 0.00 in0.0 mm 0.00 in0.0 mm
06:02 AM 34.9°F1.6°C 33.8°F1.0°C 96% 0.9 mph SW1.4 kmh SW 2.0 mph3.2 kmh 30.02 in1016.6 mb - 0.00 in0.0 mm 0.00 in0.0 mm
05:57 AM 34.9°F1.6°C 34.2°F1.2°C 97% 0.9 mph SW1.4 kmh SW -- 30.02 in1016.6 mb - 0.00 in0.0 mm 0.00 in0.0 mm
05:52 AM 35.1°F1.7°C 34.0°F1.1°C 96% Calm Calm -- 30.02 in1016.6 mb - 0.00 in0.0 mm 0.00 in0.0 mm
05:47 AM 35.1°F1.7°C 34.0°F1.1°C 96% Calm Calm -- 30.02 in1016.6 mb - 0.00 in0.0 mm 0.00 in0.0 mm
05:42 AM 35.2°F1.8°C 34.2°F1.2°C 96% Calm Calm -- 30.01 in1016.3 mb - 0.00 in0.0 mm 0.00 in0.0 mm
05:37 AM 35.4°F1.9°C 34.7°F1.5°C 97% Calm Calm 0.9 mph1.4 kmh 30.01 in1016.3 mb - 0.00 in0.0 mm 0.00 in0.0 mm
05:32 AM 35.6°F2.0°C 34.5°F1.4°C 96% Calm Calm -- 30.01 in1016.3 mb - 0.00 in0.0 mm 0.00 in0.0 mm
05:27 AM 35.8°F2.1°C 34.7°F1.5°C 96% Calm Calm 0.9 mph1.4 kmh 30.01 in1016.3 mb - 0.00 in0.0 mm 0.00 in0.0 mm
05:22 AM 36.0°F2.2°C 35.2°F1.8°C 97% Calm Calm -- 30.01 in1016.3 mb - 0.00 in0.0 mm 0.00 in0.0 mm
05:17 AM 36.3°F2.4°C 35.2°F1.8°C 96% Calm Calm -- 30.00 in1015.9 mb - 0.00 in0.0 mm 0.00 in0.0 mm
05:12 AM 36.5°F2.5°C 35.8°F2.1°C 97% 0.9 mph SW1.4 kmh SW -- 30.00 in1015.9 mb - 0.00 in0.0 mm 0.00 in0.0 mm
05:07 AM 36.9°F2.7°C 36.1°F2.3°C 97% 0.9 mph SW1.4 kmh SW -- 30.00 in1015.9 mb - 0.00 in0.0 mm 0.00 in0.0 mm
05:02 AM 37.0°F2.8°C 36.3°F2.4°C 97% Calm Calm 2.0 mph3.2 kmh 30.00 in1015.9 mb - 0.00 in0.0 mm 0.00 in0.0 mm
04:57 AM 37.0°F2.8°C 36.3°F2.4°C 97% Calm Calm 2.0 mph3.2 kmh 30.00 in1015.9 mb - 0.00 in0.0 mm 0.00 in0.0 mm
04:52 AM 37.2°F2.9°C 36.5°F2.5°C 97% Calm Calm -- 30.00 in1015.9 mb - 0.00 in0.0 mm 0.00 in0.0 mm
04:47 AM 37.2°F2.9°C 36.5°F2.5°C 97% Calm Calm -- 30.00 in1015.9 mb - 0.00 in0.0 mm 0.00 in0.0 mm
04:42 AM 37.4°F3.0°C 36.7°F2.6°C 97% Calm Calm -- 30.00 in1015.9 mb - 0.00 in0.0 mm 0.00 in0.0 mm
04:37 AM 37.4°F3.0°C 36.7°F2.6°C 97% Calm Calm 0.9 mph1.4 kmh 30.00 in1015.9 mb - 0.00 in0.0 mm 0.00 in0.0 mm
04:32 AM 37.4°F3.0°C 36.7°F2.6°C 97% Calm Calm -- 30.00 in1015.9 mb - 0.00 in0.0 mm 0.00 in0.0 mm
04:27 AM 37.4°F3.0°C 36.7°F2.6°C 97% Calm Calm -- 30.00 in1015.9 mb - 0.00 in0.0 mm 0.00 in0.0 mm
04:22 AM 37.2°F2.9°C 36.5°F2.5°C 97% Calm Calm -- 30.00 in1015.9 mb - 0.00 in0.0 mm 0.00 in0.0 mm
04:17 AM 37.4°F3.0°C 36.7°F2.6°C 97% Calm Calm -- 30.00 in1015.9 mb - 0.00 in0.0 mm 0.00 in0.0 mm
04:12 AM 37.4°F3.0°C 36.7°F2.6°C 97% Calm Calm -- 29.99 in1015.6 mb - 0.00 in0.0 mm 0.00 in0.0 mm
04:07 AM 37.6°F3.1°C 36.9°F2.7°C 97% Calm Calm -- 29.99 in1015.6 mb - 0.00 in0.0 mm 0.00 in0.0 mm
04:02 AM 37.6°F3.1°C 36.9°F2.7°C 97% Calm Calm -- 30.00 in1015.9 mb - 0.00 in0.0 mm 0.00 in0.0 mm
03:57 AM 37.6°F3.1°C 36.9°F2.7°C 97% Calm Calm -- 30.00 in1015.9 mb - 0.00 in0.0 mm 0.00 in0.0 mm
03:52 AM 37.6°F3.1°C 36.9°F2.7°C 97% Calm Calm -- 30.00 in1015.9 mb - 0.00 in0.0 mm 0.00 in0.0 mm
03:47 AM 37.6°F3.1°C 36.9°F2.7°C 97% Calm Calm -- 30.00 in1015.9 mb - 0.00 in0.0 mm 0.00 in0.0 mm
03:42 AM 37.6°F3.1°C 36.9°F2.7°C 97% Calm Calm -- 30.00 in1015.9 mb - 0.00 in0.0 mm 0.00 in0.0 mm
03:37 AM 37.6°F3.1°C 36.9°F2.7°C 97% Calm Calm -- 30.00 in1015.9 mb - 0.00 in0.0 mm 0.00 in0.0 mm
03:32 AM 37.8°F3.2°C 37.0°F2.8°C 97% Calm Calm -- 30.00 in1015.9 mb - 0.00 in0.0 mm 0.00 in0.0 mm
03:27 AM 37.8°F3.2°C 37.0°F2.8°C 97% Calm Calm -- 30.00 in1015.9 mb - 0.00 in0.0 mm 0.00 in0.0 mm
03:22 AM 37.8°F3.2°C 37.0°F2.8°C 97% Calm Calm -- 30.00 in1015.9 mb - 0.00 in0.0 mm 0.00 in0.0 mm
03:17 AM 37.8°F3.2°C 37.0°F2.8°C 97% Calm Calm -- 30.00 in1015.9 mb - 0.00 in0.0 mm 0.00 in0.0 mm
03:12 AM 37.8°F3.2°C 37.0°F2.8°C 97% Calm Calm -- 30.00 in1015.9 mb - 0.00 in0.0 mm 0.00 in0.0 mm
03:07 AM 37.8°F3.2°C 37.0°F2.8°C 97% Calm Calm -- 30.00 in1015.9 mb - 0.00 in0.0 mm 0.00 in0.0 mm
03:02 AM 37.8°F3.2°C 37.0°F2.8°C 97% Calm Calm -- 30.00 in1015.9 mb - 0.00 in0.0 mm 0.00 in0.0 mm
02:57 AM 37.8°F3.2°C 37.0°F2.8°C 97% Calm Calm -- 30.00 in1015.9 mb - 0.00 in0.0 mm 0.00 in0.0 mm
02:52 AM 37.8°F3.2°C 37.0°F2.8°C 97% Calm Calm -- 30.00 in1015.9 mb - 0.00 in0.0 mm 0.00 in0.0 mm
02:47 AM 37.8°F3.2°C 37.0°F2.8°C 97% Calm Calm -- 30.00 in1015.9 mb - 0.00 in0.0 mm 0.00 in0.0 mm
02:42 AM 37.8°F3.2°C 37.0°F2.8°C 97% Calm Calm -- 30.00 in1015.9 mb - 0.00 in0.0 mm 0.00 in0.0 mm
02:37 AM 37.8°F3.2°C 37.0°F2.8°C 97% Calm Calm -- 30.00 in1015.9 mb - 0.00 in0.0 mm 0.00 in0.0 mm
02:32 AM 37.8°F3.2°C 37.0°F2.8°C 97% Calm Calm -- 29.99 in1015.6 mb - 0.00 in0.0 mm 0.00 in0.0 mm
02:27 AM 37.8°F3.2°C 37.0°F2.8°C 97% Calm Calm -- 29.99 in1015.6 mb - 0.00 in0.0 mm 0.00 in0.0 mm
02:22 AM 37.8°F3.2°C 37.0°F2.8°C 97% Calm Calm -- 29.99 in1015.6 mb - 0.00 in0.0 mm 0.00 in0.0 mm
02:17 AM 37.8°F3.2°C 37.0°F2.8°C 97% Calm Calm -- 29.99 in1015.6 mb - 0.00 in0.0 mm 0.00 in0.0 mm
02:12 AM 37.8°F3.2°C 37.0°F2.8°C 97% Calm Calm -- 29.99 in1015.6 mb - 0.00 in0.0 mm 0.00 in0.0 mm
02:07 AM 37.8°F3.2°C 37.0°F2.8°C 97% Calm Calm -- 30.00 in1015.9 mb - 0.00 in0.0 mm 0.00 in0.0 mm
02:02 AM 37.8°F3.2°C 37.0°F2.8°C 97% Calm Calm -- 29.99 in1015.6 mb - 0.00 in0.0 mm 0.00 in0.0 mm
01:57 AM 37.8°F3.2°C 37.0°F2.8°C 97% Calm Calm -- 29.99 in1015.6 mb - 0.00 in0.0 mm 0.00 in0.0 mm
01:52 AM 37.8°F3.2°C 37.0°F2.8°C 97% Calm Calm -- 29.99 in1015.6 mb - 0.00 in0.0 mm 0.00 in0.0 mm
01:47 AM 37.8°F3.2°C 37.0°F2.8°C 97% Calm Calm -- 29.99 in1015.6 mb - 0.00 in0.0 mm 0.00 in0.0 mm
01:42 AM 37.8°F3.2°C 37.0°F2.8°C 97% Calm Calm -- 30.00 in1015.9 mb - 0.00 in0.0 mm 0.00 in0.0 mm
01:37 AM 37.8°F3.2°C 37.0°F2.8°C 97% Calm Calm -- 30.00 in1015.9 mb - 0.00 in0.0 mm 0.00 in0.0 mm
01:32 AM 37.8°F3.2°C 37.0°F2.8°C 97% Calm Calm -- 30.00 in1015.9 mb - 0.00 in0.0 mm 0.00 in0.0 mm
01:27 AM 37.8°F3.2°C 37.0°F2.8°C 97% Calm Calm -- 30.00 in1015.9 mb - 0.00 in0.0 mm 0.00 in0.0 mm
01:22 AM 37.8°F3.2°C 37.0°F2.8°C 97% Calm Calm -- 30.00 in1015.9 mb - 0.00 in0.0 mm 0.00 in0.0 mm
01:17 AM 37.8°F3.2°C 37.0°F2.8°C 97% Calm Calm -- 29.99 in1015.6 mb - 0.00 in0.0 mm 0.00 in0.0 mm
01:12 AM 37.8°F3.2°C 37.0°F2.8°C 97% Calm Calm -- 29.99 in1015.6 mb - 0.00 in0.0 mm 0.00 in0.0 mm
01:07 AM 37.8°F3.2°C 37.0°F2.8°C 97% Calm Calm -- 29.99 in1015.6 mb - 0.00 in0.0 mm 0.00 in0.0 mm
01:02 AM 37.8°F3.2°C 37.0°F2.8°C 97% Calm Calm -- 29.98 in1015.2 mb - 0.00 in0.0 mm 0.00 in0.0 mm
12:57 AM 37.8°F3.2°C 37.0°F2.8°C 97% Calm Calm -- 29.98 in1015.2 mb - 0.00 in0.0 mm 0.00 in0.0 mm
12:52 AM 37.8°F3.2°C 37.0°F2.8°C 97% Calm Calm -- 29.98 in1015.2 mb - 0.00 in0.0 mm 0.00 in0.0 mm
12:47 AM 37.8°F3.2°C 37.0°F2.8°C 97% Calm Calm -- 29.98 in1015.2 mb - 0.00 in0.0 mm 0.00 in0.0 mm
12:42 AM 37.8°F3.2°C 37.0°F2.8°C 97% Calm Calm -- 29.98 in1015.2 mb - 0.00 in0.0 mm 0.00 in0.0 mm
12:37 AM 37.8°F3.2°C 37.0°F2.8°C 97% Calm Calm 0.9 mph1.4 kmh 29.98 in1015.2 mb - 0.00 in0.0 mm 0.00 in0.0 mm
12:32 AM 37.8°F3.2°C 37.0°F2.8°C 97% Calm Calm -- 29.98 in1015.2 mb - 0.00 in0.0 mm 0.00 in0.0 mm
12:27 AM 37.8°F3.2°C 37.0°F2.8°C 97% Calm Calm -- 29.98 in1015.2 mb - 0.00 in0.0 mm 0.00 in0.0 mm
12:22 AM 37.9°F3.3°C 36.9°F2.7°C 96% Calm Calm -- 29.98 in1015.2 mb - 0.00 in0.0 mm 0.00 in0.0 mm
12:17 AM 37.9°F3.3°C 36.9°F2.7°C 96% Calm Calm -- 29.98 in1015.2 mb - 0.00 in0.0 mm 0.00 in0.0 mm
12:12 AM 37.9°F3.3°C 36.9°F2.7°C 96% Calm Calm -- 29.98 in1015.2 mb - 0.00 in0.0 mm 0.00 in0.0 mm
12:07 AM 37.9°F3.3°C 36.9°F2.7°C 96% Calm Calm -- 29.98 in1015.2 mb - 0.00 in0.0 mm 0.00 in0.0 mm
12:02 AM 37.9°F3.3°C 36.9°F2.7°C 96% Calm Calm -- 29.98 in1015.2 mb - 0.00 in0.0 mm 0.24 in6.1 mm